createdAt,value
2023-09-13T00:01:19.846Z,100444.38
2023-09-13T00:03:51.681Z,100444.13
2023-09-13T00:06:20.415Z,100441.31
2023-09-13T00:08:53.968Z,100442.19
2023-09-13T00:11:22.492Z,100448.97
2023-09-13T00:13:52.634Z,100445.88
2023-09-13T00:16:21.092Z,100466.41
2023-09-13T00:18:49.955Z,100476.00
2023-09-13T00:21:21.620Z,100469.63
2023-09-13T00:23:52.598Z,100468.50
2023-09-13T00:26:20.967Z,100469.75
2023-09-13T00:28:53.980Z,100478.91
2023-09-13T00:31:25.419Z,100481.06
2023-09-13T00:33:55.865Z,100483.97
2023-09-13T00:36:28.539Z,100496.84
2023-09-13T00:39:02.106Z,100496.84
2023-09-13T00:41:30.681Z,100495.53
2023-09-13T00:44:01.172Z,100485.22
2023-09-13T00:46:32.030Z,100510.19
2023-09-13T00:49:04.176Z,100508.53
2023-09-13T00:51:33.051Z,100505.09
2023-09-13T00:54:05.369Z,100498.28
2023-09-13T00:56:34.513Z,100496.09
2023-09-13T00:59:06.047Z,100493.13
2023-09-13T01:01:35.560Z,100487.47
2023-09-13T01:04:05.132Z,100498.53
2023-09-13T01:06:35.842Z,100496.94
2023-09-13T01:09:05.979Z,100489.44
2023-09-13T01:11:34.795Z,100484.06
2023-09-13T01:14:04.560Z,100484.19
2023-09-13T01:16:42.302Z,100469.31
2023-09-13T01:19:34.703Z,100467.16
2023-09-13T01:22:28.788Z,100481.47
2023-09-13T01:25:19.742Z,100473.19
2023-09-13T01:27:51.295Z,100474.34
2023-09-13T01:30:22.574Z,100465.44
2023-09-13T01:32:53.139Z,100463.97
2023-09-13T01:35:22.388Z,100456.16
2023-09-13T01:37:52.587Z,100453.19
2023-09-13T01:40:23.242Z,100442.91
2023-09-13T01:42:58.220Z,100443.16
2023-09-13T01:45:29.314Z,100445.34
2023-09-13T01:47:58.167Z,100444.88
2023-09-13T01:50:26.572Z,100448.97
2023-09-13T01:52:55.137Z,100446.94
2023-09-13T01:55:23.545Z,100455.00
2023-09-13T01:57:51.843Z,100452.91
2023-09-13T02:00:21.000Z,100454.97
2023-09-13T02:02:50.663Z,100456.31
2023-09-13T02:05:19.142Z,100447.38
2023-09-13T02:07:47.402Z,100443.84
2023-09-13T02:10:15.851Z,100437.97
2023-09-13T02:12:44.090Z,100442.13
2023-09-13T02:15:13.782Z,100438.97
2023-09-13T02:17:44.388Z,100435.03
2023-09-13T02:20:14.375Z,100442.00
2023-09-13T02:22:42.858Z,100437.81
2023-09-13T02:25:11.262Z,100437.31
2023-09-13T02:27:39.539Z,100443.03
2023-09-13T02:30:09.103Z,100450.31
2023-09-13T02:32:37.463Z,100460.47
2023-09-13T02:35:06.477Z,100460.94
2023-09-13T02:37:36.166Z,100467.34
2023-09-13T02:40:07.216Z,100472.00
2023-09-13T02:42:35.365Z,100478.97
2023-09-13T02:45:04.210Z,100477.75
2023-09-13T02:47:32.665Z,100480.53
2023-09-13T02:50:01.053Z,100483.69
2023-09-13T02:52:31.957Z,100466.00
2023-09-13T02:55:02.261Z,100461.22
2023-09-13T02:57:30.682Z,100465.13
2023-09-13T02:59:59.045Z,100466.47
2023-09-13T03:02:27.717Z,100471.47
2023-09-13T03:04:56.583Z,100468.53
2023-09-13T03:07:26.433Z,100471.31
2023-09-13T03:09:58.890Z,100468.03
2023-09-13T03:12:29.950Z,100464.34
2023-09-13T03:14:58.413Z,100458.50
2023-09-13T03:17:26.950Z,100457.53
2023-09-13T03:19:55.614Z,100467.44
2023-09-13T03:22:24.545Z,100468.78
2023-09-13T03:24:53.210Z,100464.09
2023-09-13T03:27:22.558Z,100466.66
2023-09-13T03:29:52.341Z,100467.66
2023-09-13T03:32:20.760Z,100465.81
2023-09-13T03:34:49.534Z,100467.66
2023-09-13T03:37:21.051Z,100463.13
2023-09-13T03:39:49.660Z,100461.88
2023-09-13T03:42:18.095Z,100465.56
2023-09-13T03:44:46.482Z,100453.69
2023-09-13T03:47:16.438Z,100460.34
2023-09-13T03:49:44.864Z,100458.97
2023-09-13T03:52:13.159Z,100461.66
2023-09-13T03:54:41.599Z,100471.72
2023-09-13T03:57:16.051Z,100466.50
2023-09-13T03:59:45.521Z,100468.53
2023-09-13T04:02:14.056Z,100484.41
2023-09-13T04:04:43.803Z,100478.44
2023-09-13T04:07:16.137Z,100472.19
2023-09-13T04:09:44.510Z,100471.00
2023-09-13T04:12:12.777Z,100481.50
2023-09-13T04:14:41.016Z,100487.25
2023-09-13T04:17:09.778Z,100492.28
2023-09-13T04:19:39.781Z,100488.38
2023-09-13T04:22:11.323Z,100493.88
2023-09-13T04:24:39.840Z,100480.31
2023-09-13T04:27:08.487Z,100475.16
2023-09-13T04:29:43.848Z,100479.53
2023-09-13T04:32:12.273Z,100475.63
2023-09-13T04:34:40.661Z,100481.63
2023-09-13T04:37:10.775Z,100485.16
2023-09-13T04:39:39.518Z,100482.25
2023-09-13T04:42:08.957Z,100489.97
2023-09-13T04:44:37.334Z,100487.63
2023-09-13T04:47:06.239Z,100487.53
2023-09-13T04:49:34.504Z,100489.84
2023-09-13T04:52:04.239Z,100486.28
2023-09-13T04:54:34.306Z,100486.19
2023-09-13T04:57:02.649Z,100481.25
2023-09-13T04:59:44.534Z,100490.06
2023-09-13T05:02:16.313Z,100486.78
2023-09-13T05:04:46.651Z,100474.44
2023-09-13T05:07:15.065Z,100476.75
2023-09-13T05:09:44.925Z,100478.44
2023-09-13T05:12:13.531Z,100478.81
2023-09-13T05:14:43.801Z,100476.63
2023-09-13T05:17:12.417Z,100475.53
2023-09-13T05:19:42.712Z,100478.88
2023-09-13T05:22:10.952Z,100483.03
2023-09-13T05:24:39.793Z,100480.56
2023-09-13T05:27:09.423Z,100483.50
2023-09-13T05:29:37.707Z,100480.44
2023-09-13T05:32:06.583Z,100482.53
2023-09-13T05:34:34.970Z,100484.38
2023-09-13T05:37:03.589Z,100494.75
2023-09-13T05:39:31.829Z,100501.13
2023-09-13T05:42:02.789Z,100506.28
2023-09-13T05:44:34.415Z,100512.63
2023-09-13T05:47:03.411Z,100504.78
2023-09-13T05:49:32.045Z,100501.59
2023-09-13T05:52:00.493Z,100516.19
2023-09-13T05:54:28.718Z,100519.38
2023-09-13T05:56:57.784Z,100520.13
2023-09-13T05:59:26.469Z,100525.63
2023-09-13T06:01:56.254Z,100520.25
2023-09-13T06:04:24.848Z,100533.22
2023-09-13T06:06:53.230Z,100530.38
2023-09-13T06:09:23.338Z,100540.00
2023-09-13T06:11:51.912Z,100542.72
2023-09-13T06:14:20.518Z,100551.66
2023-09-13T06:16:48.980Z,100554.63
2023-09-13T06:19:18.863Z,100552.34
2023-09-13T06:21:48.996Z,100561.84
2023-09-13T06:24:17.320Z,100535.25
2023-09-13T06:26:45.530Z,100561.13
2023-09-13T06:29:13.917Z,100551.69
2023-09-13T06:32:00.232Z,100569.84
2023-09-13T06:34:32.261Z,100565.56
2023-09-13T06:37:02.031Z,100567.88
2023-09-13T06:39:30.993Z,100552.94
2023-09-13T06:41:59.636Z,100567.75
2023-09-13T06:44:44.229Z,100576.22
2023-09-13T06:47:15.334Z,100573.16
2023-09-13T06:49:49.849Z,100572.91
2023-09-13T06:52:21.784Z,100577.47
2023-09-13T06:54:52.599Z,100582.84
2023-09-13T06:57:23.457Z,100582.84
2023-09-13T06:59:57.774Z,100580.16
2023-09-13T07:02:33.386Z,100584.31
2023-09-13T07:07:38.508Z,100595.22
2023-09-13T07:10:09.044Z,100609.31
2023-09-13T07:12:37.465Z,100604.66
2023-09-13T07:15:08.518Z,100608.09
2023-09-13T07:17:37.086Z,100602.69
2023-09-13T07:20:08.717Z,100603.41
2023-09-13T07:22:37.500Z,100601.56
2023-09-13T07:25:07.201Z,100568.56
2023-09-13T07:27:35.846Z,100587.31
2023-09-13T07:30:09.354Z,100564.59
2023-09-13T07:32:40.626Z,100620.06
2023-09-13T07:35:10.709Z,100624.28
2023-09-13T07:37:39.127Z,100614.94
2023-09-13T07:40:08.473Z,100613.50
2023-09-13T07:42:38.437Z,100605.38
2023-09-13T07:45:07.905Z,100620.59
2023-09-13T07:47:36.366Z,100613.13
2023-09-13T07:50:05.050Z,100600.91
2023-09-13T07:52:54.494Z,100619.28
2023-09-13T07:55:23.148Z,100622.22
2023-09-13T07:57:51.463Z,100637.16
2023-09-13T08:00:19.960Z,100631.00
2023-09-13T08:02:51.355Z,100643.91
2023-09-13T08:05:20.309Z,100636.56
2023-09-13T08:07:50.290Z,100624.16
2023-09-13T08:10:18.650Z,100651.78
2023-09-13T08:12:48.337Z,100645.38
2023-09-13T08:15:17.114Z,100658.91
2023-09-13T08:17:45.624Z,100628.56
2023-09-13T08:20:14.215Z,100652.78
2023-09-13T08:22:45.525Z,100656.69
2023-09-13T08:25:15.299Z,100650.56
2023-09-13T08:27:43.617Z,100644.41
2023-09-13T08:30:12.409Z,100652.03
2023-09-13T08:32:41.028Z,100665.13
2023-09-13T08:35:10.921Z,100664.72
2023-09-13T08:37:39.631Z,100658.81
2023-09-13T08:40:09.127Z,100675.03
2023-09-13T08:42:42.389Z,100656.81
2023-09-13T08:45:15.518Z,100676.97
2023-09-13T08:47:57.883Z,100662.78
2023-09-13T08:50:30.304Z,100679.28
2023-09-13T08:53:01.606Z,100689.91
2023-09-13T08:55:30.538Z,100674.69
2023-09-13T08:58:01.489Z,100673.81
2023-09-13T09:00:33.784Z,100678.06
2023-09-13T09:03:06.842Z,100682.81
2023-09-13T09:05:38.718Z,100659.34
2023-09-13T09:08:07.890Z,100685.91
2023-09-13T09:10:37.532Z,100683.22
2023-09-13T09:13:11.469Z,100687.44
2023-09-13T09:15:41.965Z,100702.00
2023-09-13T09:18:13.002Z,100705.94
2023-09-13T09:20:43.110Z,100695.94
2023-09-13T09:23:12.409Z,100711.03
2023-09-13T09:25:45.065Z,100710.31
2023-09-13T09:28:15.281Z,100712.13
2023-09-13T09:30:47.017Z,100725.22
2023-09-13T09:33:16.199Z,100728.56
2023-09-13T09:35:55.275Z,100733.22
2023-09-13T09:38:47.045Z,100734.34
2023-09-13T09:41:15.678Z,100738.59
2023-09-13T09:43:46.770Z,100733.53
2023-09-13T09:46:15.468Z,100729.47
2023-09-13T09:48:44.547Z,100746.66
2023-09-13T09:51:13.812Z,100750.34
2023-09-13T09:53:42.413Z,100757.09
2023-09-13T09:56:13.342Z,100761.38
2023-09-13T09:58:43.391Z,100765.53
2023-09-13T10:01:13.948Z,100768.22
2023-09-13T10:03:42.636Z,100780.47
2023-09-13T10:06:12.472Z,100777.84
2023-09-13T10:08:45.551Z,100782.03
2023-09-13T10:11:17.563Z,100786.38
2023-09-13T10:13:47.199Z,100785.28
2023-09-13T10:16:18.148Z,100785.13
2023-09-13T10:18:49.346Z,100790.94
2023-09-13T10:21:25.343Z,100795.56
2023-09-13T10:23:59.094Z,100797.94
2023-09-13T10:26:28.276Z,100795.50
2023-09-13T10:29:00.486Z,100797.22
2023-09-13T10:31:33.146Z,100810.75
2023-09-13T10:34:06.446Z,100790.31
2023-09-13T10:36:37.988Z,100812.59
2023-09-13T10:39:13.758Z,100826.72
2023-09-13T10:41:54.700Z,100823.72
2023-09-13T10:44:25.920Z,100824.59
2023-09-13T10:46:57.262Z,100823.19
2023-09-13T10:49:26.942Z,100827.38
2023-09-13T10:51:57.029Z,100835.47
2023-09-13T10:54:26.618Z,100831.88
2023-09-13T10:56:56.276Z,100831.00
2023-09-13T10:59:26.969Z,100826.78
2023-09-13T11:01:56.809Z,100836.03
2023-09-13T11:04:26.822Z,100834.13
2023-09-13T11:06:58.676Z,100830.94
2023-09-13T11:09:30.220Z,100839.03
2023-09-13T11:12:00.317Z,100855.91
2023-09-13T11:14:30.345Z,100852.59
2023-09-13T11:17:35.600Z,100853.00
2023-09-13T11:20:23.144Z,100848.06
2023-09-13T11:23:24.958Z,100849.88
2023-09-13T11:26:05.935Z,100853.53
2023-09-13T11:28:46.560Z,100861.41
2023-09-13T11:31:18.974Z,100880.63
2023-09-13T11:33:56.869Z,100880.53
2023-09-13T11:36:28.151Z,100882.91
2023-09-13T11:38:58.207Z,100895.03
2023-09-13T11:41:26.662Z,100905.78
2023-09-13T11:44:03.845Z,100912.44
2023-09-13T11:46:34.959Z,100905.38
2023-09-13T11:49:05.683Z,100910.28
2023-09-13T11:54:16.520Z,100923.66
2023-09-13T11:56:48.373Z,100925.00
2023-09-13T11:59:20.120Z,100921.38
2023-09-13T12:01:53.040Z,100941.22
2023-09-13T12:07:03.063Z,100920.41
2023-09-13T12:09:35.137Z,100947.75
2023-09-13T12:12:07.562Z,100953.78
2023-09-13T12:14:56.940Z,100962.13
2023-09-13T12:17:38.900Z,100953.31
2023-09-13T12:20:11.526Z,100980.06
2023-09-13T12:22:40.739Z,100979.78
2023-09-13T12:25:11.978Z,100962.69
2023-09-13T12:27:40.962Z,100968.84
2023-09-13T12:30:19.131Z,100975.44
2023-09-13T12:32:49.399Z,100980.28
2023-09-13T12:35:20.771Z,100974.56
2023-09-13T12:37:59.264Z,100977.47
2023-09-13T12:40:28.933Z,100985.94
2023-09-13T12:42:57.965Z,100987.66
2023-09-13T12:45:38.356Z,100990.69
2023-09-13T12:48:07.281Z,100996.56
2023-09-13T12:50:39.736Z,101002.91
2023-09-13T12:53:09.648Z,101007.16
2023-09-13T12:55:40.952Z,101005.81
2023-09-13T12:58:09.556Z,101013.38
2023-09-13T13:00:52.753Z,101002.72
2023-09-13T13:03:26.030Z,101031.44
2023-09-13T13:06:02.611Z,101029.72
2023-09-13T13:08:37.706Z,101035.44
2023-09-13T13:11:07.398Z,101026.22
2023-09-13T13:13:37.646Z,101036.34
2023-09-13T13:16:16.076Z,101030.38
2023-09-13T13:18:53.821Z,101043.28
2023-09-13T13:21:38.794Z,101021.16
2023-09-13T13:24:08.883Z,101048.81
2023-09-13T13:26:37.223Z,101057.28
2023-09-13T13:29:11.106Z,101061.47
2023-09-13T13:31:39.761Z,101063.97
2023-09-13T13:34:08.167Z,101063.41
2023-09-13T13:36:38.288Z,101067.31
2023-09-13T13:39:07.859Z,101061.06
2023-09-13T13:41:36.265Z,101063.16
2023-09-13T13:44:04.616Z,101077.06
2023-09-13T13:46:33.022Z,101067.97
2023-09-13T13:49:03.342Z,101075.38
2023-09-13T13:51:31.762Z,101067.44
2023-09-13T13:54:03.746Z,101088.53
2023-09-13T13:56:32.676Z,101094.03
2023-09-13T13:59:01.292Z,101102.63
2023-09-13T14:01:29.636Z,101081.59
2023-09-13T14:03:58.021Z,101106.84
2023-09-13T14:06:26.688Z,101108.78
2023-09-13T14:08:54.992Z,101109.53
2023-09-13T14:11:24.940Z,101091.63
2023-09-13T14:13:53.433Z,101116.53
2023-09-13T14:16:21.859Z,101117.56
2023-09-13T14:18:50.298Z,101117.34
2023-09-13T14:21:18.759Z,101124.22
2023-09-13T14:23:47.239Z,101127.53
2023-09-13T14:26:15.859Z,101132.28
2023-09-13T14:28:45.611Z,101128.59
2023-09-13T14:31:16.040Z,101142.22
2023-09-13T14:33:47.993Z,101140.38
2023-09-13T14:36:17.023Z,101143.78
2023-09-13T14:38:45.629Z,101152.94
2023-09-13T14:41:14.185Z,101154.63
2023-09-13T14:43:42.915Z,101154.81
2023-09-13T14:46:13.304Z,101160.97
2023-09-13T14:48:42.128Z,101157.50
2023-09-13T14:51:10.736Z,101160.63
2023-09-13T14:53:39.216Z,101165.66
2023-09-13T14:56:07.687Z,101162.22
2023-09-13T14:58:36.249Z,101155.69
2023-09-13T15:01:04.933Z,101162.28
2023-09-13T15:03:37.840Z,101153.06
2023-09-13T15:06:09.332Z,101164.84
2023-09-13T15:08:37.750Z,101162.16
2023-09-13T15:11:06.277Z,101154.84
2023-09-13T15:13:35.198Z,101168.28
2023-09-13T15:16:04.315Z,101172.34
2023-09-13T15:18:35.793Z,101179.78
2023-09-13T15:21:04.589Z,101163.78
2023-09-13T15:23:33.217Z,101174.16
2023-09-13T15:26:01.726Z,101176.66
2023-09-13T15:28:30.940Z,101179.84
2023-09-13T15:31:01.036Z,101177.69
2023-09-13T15:33:30.450Z,101177.66
2023-09-13T15:36:00.116Z,101169.63
2023-09-13T15:38:28.417Z,101186.63
2023-09-13T15:40:56.839Z,101195.84
2023-09-13T15:43:25.271Z,101199.56
2023-09-13T15:45:56.418Z,101169.00
2023-09-13T15:48:25.166Z,101196.00
2023-09-13T15:50:53.896Z,101199.84
2023-09-13T15:53:23.520Z,101189.59
2023-09-13T15:55:52.158Z,101191.03
2023-09-13T15:58:20.524Z,101196.22
2023-09-13T16:00:48.979Z,101206.44
2023-09-13T16:03:18.458Z,101210.50
2023-09-13T16:05:47.797Z,101208.28
2023-09-13T16:08:16.435Z,101216.16
2023-09-13T16:10:46.268Z,101216.84
2023-09-13T16:13:14.964Z,101214.78
2023-09-13T16:15:43.958Z,101205.78
2023-09-13T16:18:12.620Z,101212.28
2023-09-13T16:20:41.333Z,101198.84
2023-09-13T16:23:16.476Z,101189.25
2023-09-13T16:25:46.532Z,101197.88
2023-09-13T16:28:14.744Z,101190.13
2023-09-13T16:30:43.197Z,101199.47
2023-09-13T16:33:11.586Z,101199.97
2023-09-13T16:35:40.044Z,101191.13
2023-09-13T16:38:11.129Z,101201.47
2023-09-13T16:40:48.637Z,101196.59
2023-09-13T16:43:17.394Z,101207.66
2023-09-13T16:45:45.891Z,101197.25
2023-09-13T16:48:27.696Z,101203.56
2023-09-13T16:51:00.770Z,101223.94
2023-09-13T16:53:34.113Z,101218.03
2023-09-13T16:56:04.156Z,101230.75
2023-09-13T16:58:32.553Z,101225.53
2023-09-13T17:01:01.630Z,101223.03
2023-09-13T17:03:30.112Z,101232.16
2023-09-13T17:05:59.968Z,101207.88
2023-09-13T17:08:29.557Z,101226.94
2023-09-13T17:10:58.021Z,101241.50
2023-09-13T17:13:27.861Z,101245.38
2023-09-13T17:15:56.248Z,101221.66
2023-09-13T17:18:25.163Z,101252.53
2023-09-13T17:20:53.951Z,101247.78
2023-09-13T17:23:25.467Z,101251.91
2023-09-13T17:25:53.977Z,101244.66
2023-09-13T17:28:22.672Z,101255.81
2023-09-13T17:30:53.956Z,101254.50
2023-09-13T17:33:22.396Z,101272.50
2023-09-13T17:35:50.980Z,101276.69
2023-09-13T17:38:19.299Z,101260.13
2023-09-13T17:40:47.890Z,101281.88
2023-09-13T17:43:16.231Z,101281.00
2023-09-13T17:45:44.727Z,101283.78
2023-09-13T17:48:14.662Z,101279.22
2023-09-13T17:50:43.054Z,101281.25
2023-09-13T17:53:11.801Z,101284.38
2023-09-13T17:55:40.112Z,101276.34
2023-09-13T17:58:08.462Z,101285.59
2023-09-13T18:00:36.766Z,101297.34
2023-09-13T18:03:05.928Z,101291.34
2023-09-13T18:05:35.832Z,101295.59
2023-09-13T18:08:04.528Z,101301.34
2023-09-13T18:10:33.188Z,101295.41
2023-09-13T18:13:02.836Z,101301.03
2023-09-13T18:15:31.454Z,101301.03
2023-09-13T18:18:00.310Z,101306.38
2023-09-13T18:20:29.415Z,101297.66
2023-09-13T18:22:59.736Z,101318.13
2023-09-13T18:25:30.965Z,101316.53
2023-09-13T18:27:59.343Z,101334.59
2023-09-13T18:30:27.820Z,101331.22
2023-09-13T18:32:56.211Z,101318.41
2023-09-13T18:35:24.602Z,101320.78
2023-09-13T18:37:52.863Z,101322.63
2023-09-13T18:40:22.631Z,101333.25
2023-09-13T18:42:54.131Z,101332.69
2023-09-13T18:45:22.663Z,101337.63
2023-09-13T18:47:51.032Z,101345.75
2023-09-13T18:50:19.472Z,101352.31
2023-09-13T18:52:47.691Z,101353.94
2023-09-13T18:55:16.033Z,101368.38
2023-09-13T18:57:46.933Z,101356.63
2023-09-13T19:00:15.510Z,101354.59
2023-09-13T19:02:45.360Z,101362.47
2023-09-13T19:05:13.640Z,101346.56
2023-09-13T19:07:41.919Z,101369.28
2023-09-13T19:10:11.446Z,101363.28
2023-09-13T19:12:40.688Z,101371.22
2023-09-13T19:15:13.242Z,101371.28
2023-09-13T19:17:44.020Z,101371.34
2023-09-13T19:20:12.629Z,101373.16
2023-09-13T19:22:40.974Z,101370.44
2023-09-13T19:25:14.307Z,101386.19
2023-09-13T19:27:42.755Z,101385.75
2023-09-13T19:30:13.525Z,101383.03
2023-09-13T19:32:41.823Z,101392.84
2023-09-13T19:35:10.983Z,101394.78
2023-09-13T19:37:39.253Z,101396.56
2023-09-13T19:40:09.488Z,101397.78
2023-09-13T19:42:37.898Z,101408.34
2023-09-13T19:45:07.388Z,101408.41
2023-09-13T19:47:37.221Z,101414.63
2023-09-13T19:50:05.911Z,101408.34
2023-09-13T19:52:34.535Z,101406.34
2023-09-13T19:55:03.340Z,101403.94
2023-09-13T19:57:33.235Z,101416.22
2023-09-13T20:00:01.662Z,101421.72
2023-09-13T20:02:30.336Z,101424.59
2023-09-13T20:05:00.051Z,101430.88
2023-09-13T20:07:33.523Z,101418.50
2023-09-13T20:10:01.841Z,101408.47
2023-09-13T20:12:30.436Z,101425.88
2023-09-13T20:14:58.949Z,101423.72
2023-09-13T20:17:27.371Z,101426.25
2023-09-13T20:19:56.888Z,101423.84
2023-09-13T20:22:26.896Z,101426.72
2023-09-13T20:24:55.340Z,101440.81
2023-09-13T20:27:24.067Z,101435.63
2023-09-13T20:29:52.349Z,101435.41
2023-09-13T20:32:20.572Z,101440.16
2023-09-13T20:35:06.794Z,101449.88
2023-09-13T20:37:36.530Z,101457.06
2023-09-13T20:40:05.591Z,101449.09
2023-09-13T20:42:35.384Z,101447.72
2023-09-13T20:45:04.858Z,101454.72
2023-09-13T20:47:33.224Z,101449.44
2023-09-13T20:50:01.375Z,101446.16
2023-09-13T20:52:29.767Z,101449.88
2023-09-13T20:54:59.375Z,101455.50
2023-09-13T20:57:27.695Z,101445.00
2023-09-13T20:59:56.023Z,101459.28
2023-09-13T21:02:24.317Z,101462.16
2023-09-13T21:04:56.005Z,101471.88
2023-09-13T21:07:25.603Z,101475.69
2023-09-13T21:09:53.941Z,101468.69
2023-09-13T21:12:25.156Z,101475.00
2023-09-13T21:14:54.627Z,101466.44
2023-09-13T21:17:24.068Z,101476.63
2023-09-13T21:19:53.915Z,101464.66
2023-09-13T21:22:22.284Z,101482.66
2023-09-13T21:24:50.558Z,101485.38
2023-09-13T21:27:18.905Z,101488.06
2023-09-13T21:29:48.550Z,101470.72
2023-09-13T21:32:16.888Z,101492.97
2023-09-13T21:34:59.014Z,101483.44
2023-09-13T21:37:34.204Z,101487.41
2023-09-13T21:40:03.969Z,101489.22
2023-09-13T21:42:32.551Z,101489.56
2023-09-13T21:45:02.532Z,101494.03
2023-09-13T21:47:36.104Z,101492.50
2023-09-13T21:50:30.058Z,101498.06
2023-09-13T21:52:58.279Z,101487.88
2023-09-13T21:55:26.439Z,101499.09
2023-09-13T21:57:54.942Z,101508.06
2023-09-13T22:00:24.927Z,101504.00
2023-09-13T22:02:54.849Z,101497.75
2023-09-13T22:05:29.655Z,101438.06
2023-09-13T22:08:00.499Z,101487.78
2023-09-13T22:10:29.561Z,101486.19
2023-09-13T22:12:58.254Z,101459.41
2023-09-13T22:15:28.966Z,101490.59
2023-09-13T22:17:57.550Z,101518.47
2023-09-13T22:20:26.425Z,101504.53
2023-09-13T22:23:00.460Z,101441.34
2023-09-13T22:25:29.045Z,101519.16
2023-09-13T22:27:57.424Z,101509.50
2023-09-13T22:30:27.398Z,101520.84
2023-09-13T22:32:55.853Z,101527.28
2023-09-13T22:35:24.321Z,101509.97
2023-09-13T22:37:52.925Z,101518.75
2023-09-13T22:40:21.317Z,101509.22
2023-09-13T22:42:49.822Z,101509.22
2023-09-13T22:45:18.443Z,101524.16
2023-09-13T22:47:48.375Z,101524.91
2023-09-13T22:50:16.889Z,101521.06
2023-09-13T22:52:45.449Z,101505.72
2023-09-13T22:55:13.743Z,101525.22
2023-09-13T22:57:42.289Z,101524.56
2023-09-13T23:00:11.658Z,101533.69
2023-09-13T23:02:39.982Z,101525.50
2023-09-13T23:05:10.533Z,101524.94
2023-09-13T23:07:39.081Z,101523.94
2023-09-13T23:10:07.879Z,101530.94
2023-09-13T23:12:36.313Z,101531.13
2023-09-13T23:15:06.492Z,101524.28
2023-09-13T23:17:35.009Z,101527.94
2023-09-13T23:20:03.337Z,101528.88
2023-09-13T23:22:33.141Z,101524.28
2023-09-13T23:25:01.637Z,101511.94
2023-09-13T23:27:30.056Z,101511.28
2023-09-13T23:29:58.262Z,101528.97
2023-09-13T23:32:28.517Z,101530.09
2023-09-13T23:34:57.472Z,101526.72
2023-09-13T23:37:25.806Z,101533.19
2023-09-13T23:39:55.629Z,101529.63
2023-09-13T23:42:23.915Z,101522.59
2023-09-13T23:44:54.039Z,101541.09
2023-09-13T23:47:22.342Z,101536.72
2023-09-13T23:49:50.610Z,101528.13
2023-09-13T23:52:18.762Z,101537.88
2023-09-13T23:54:47.291Z,101529.34
2023-09-13T23:57:17.012Z,101542.53
2023-09-13T23:59:45.415Z,101542.53
